sensor_id;sensor_type;location;lat;lon;timestamp;P1;durP1;ratioP1;P2;durP2;ratioP2
21645;SDS011;10984;45.712;4.800;2023-02-01T00:01:53;18.10;;;10.27;;
21645;SDS011;10984;45.712;4.800;2023-02-01T00:04:19;15.60;;;9.13;;
21645;SDS011;10984;45.712;4.800;2023-02-01T00:06:45;15.35;;;8.55;;
21645;SDS011;10984;45.712;4.800;2023-02-01T00:09:10;19.50;;;10.25;;
21645;SDS011;10984;45.712;4.800;2023-02-01T00:11:36;17.23;;;9.68;;
21645;SDS011;10984;45.712;4.800;2023-02-01T00:14:02;18.33;;;9.20;;
21645;SDS011;10984;45.712;4.800;2023-02-01T00:16:28;17.20;;;8.88;;
21645;SDS011;10984;45.712;4.800;2023-02-01T00:21:40;15.40;;;8.52;;
21645;SDS011;10984;45.712;4.800;2023-02-01T00:24:06;17.63;;;8.77;;
21645;SDS011;10984;45.712;4.800;2023-02-01T00:26:33;15.02;;;8.77;;
21645;SDS011;10984;45.712;4.800;2023-02-01T00:28:59;13.45;;;7.72;;
21645;SDS011;10984;45.712;4.800;2023-02-01T00:31:25;17.60;;;8.98;;
21645;SDS011;10984;45.712;4.800;2023-02-01T00:33:51;15.50;;;9.57;;
21645;SDS011;10984;45.712;4.800;2023-02-01T00:36:17;16.50;;;8.65;;
21645;SDS011;10984;45.712;4.800;2023-02-01T00:38:43;16.67;;;8.75;;
21645;SDS011;10984;45.712;4.800;2023-02-01T00:43:53;15.48;;;9.35;;
21645;SDS011;10984;45.712;4.800;2023-02-01T00:46:19;20.40;;;9.77;;
21645;SDS011;10984;45.712;4.800;2023-02-01T00:48:46;17.13;;;9.00;;
21645;SDS011;10984;45.712;4.800;2023-02-01T00:51:13;19.45;;;8.88;;
21645;SDS011;10984;45.712;4.800;2023-02-01T00:53:40;18.33;;;8.93;;
21645;SDS011;10984;45.712;4.800;2023-02-01T00:56:06;15.02;;;8.98;;
21645;SDS011;10984;45.712;4.800;2023-02-01T00:58:33;13.55;;;7.47;;
21645;SDS011;10984;45.712;4.800;2023-02-01T01:03:47;17.92;;;8.27;;
21645;SDS011;10984;45.712;4.800;2023-02-01T01:06:16;15.82;;;8.63;;
21645;SDS011;10984;45.712;4.800;2023-02-01T01:08:45;19.40;;;9.00;;
21645;SDS011;10984;45.712;4.800;2023-02-01T01:11:11;14.63;;;8.52;;
21645;SDS011;10984;45.712;4.800;2023-02-01T01:13:56;18.05;;;9.60;;
21645;SDS011;10984;45.712;4.800;2023-02-01T01:16:24;17.02;;;9.68;;
21645;SDS011;10984;45.712;4.800;2023-02-01T01:18:51;18.98;;;10.05;;
21645;SDS011;10984;45.712;4.800;2023-02-01T01:21:18;16.40;;;8.55;;
21645;SDS011;10984;45.712;4.800;2023-02-01T01:23:44;15.00;;;7.97;;
21645;SDS011;10984;45.712;4.800;2023-02-01T01:28:56;11.50;;;6.95;;
21645;SDS011;10984;45.712;4.800;2023-02-01T01:31:22;12.45;;;7.03;;
21645;SDS011;10984;45.712;4.800;2023-02-01T01:36:33;14.02;;;7.13;;
21645;SDS011;10984;45.712;4.800;2023-02-01T01:38:59;12.98;;;6.60;;
21645;SDS011;10984;45.712;4.800;2023-02-01T01:41:26;14.77;;;6.60;;
21645;SDS011;10984;45.712;4.800;2023-02-01T01:48:55;12.93;;;7.13;;
21645;SDS011;10984;45.712;4.800;2023-02-01T01:51:26;14.63;;;6.95;;
21645;SDS011;10984;45.712;4.800;2023-02-01T01:53:56;9.65;;;5.93;;
21645;SDS011;10984;45.712;4.800;2023-02-01T01:56:42;12.23;;;6.97;;
21645;SDS011;10984;45.712;4.800;2023-02-01T01:59:12;14.50;;;7.13;;
21645;SDS011;10984;45.712;4.800;2023-02-01T02:01:37;14.13;;;6.70;;
21645;SDS011;10984;45.712;4.800;2023-02-01T02:04:03;10.93;;;6.30;;
21645;SDS011;10984;45.712;4.800;2023-02-01T02:06:32;12.30;;;6.53;;
21645;SDS011;10984;45.712;4.800;2023-02-01T02:09:02;14.48;;;6.95;;
21645;SDS011;10984;45.712;4.800;2023-02-01T02:11:28;13.82;;;6.93;;
21645;SDS011;10984;45.712;4.800;2023-02-01T02:13:54;11.70;;;5.75;;
21645;SDS011;10984;45.712;4.800;2023-02-01T02:48:57;11.07;;;5.38;;
21645;SDS011;10984;45.712;4.800;2023-02-01T02:54:51;13.43;;;5.70;;
21645;SDS011;10984;45.712;4.800;2023-02-01T03:00:27;11.68;;;6.22;;
21645;SDS011;10984;45.712;4.800;2023-02-01T03:03:14;13.30;;;6.30;;
21645;SDS011;10984;45.712;4.800;2023-02-01T03:05:58;14.43;;;6.30;;
21645;SDS011;10984;45.712;4.800;2023-02-01T03:08:25;12.93;;;6.28;;
21645;SDS011;10984;45.712;4.800;2023-02-01T03:19:25;10.73;;;6.20;;
21645;SDS011;10984;45.712;4.800;2023-02-01T03:28:04;10.60;;;5.70;;
21645;SDS011;10984;45.712;4.800;2023-02-01T03:30:36;14.13;;;5.63;;
21645;SDS011;10984;45.712;4.800;2023-02-01T03:33:08;11.25;;;5.38;;
21645;SDS011;10984;45.712;4.800;2023-02-01T03:44:32;14.27;;;7.80;;
21645;SDS011;10984;45.712;4.800;2023-02-01T03:47:03;10.48;;;6.63;;
21645;SDS011;10984;45.712;4.800;2023-02-01T03:52:01;10.30;;;5.03;;
21645;SDS011;10984;45.712;4.800;2023-02-01T03:54:30;11.18;;;5.13;;
21645;SDS011;10984;45.712;4.800;2023-02-01T03:56:57;16.73;;;5.32;;
21645;SDS011;10984;45.712;4.800;2023-02-01T03:59:27;11.38;;;5.90;;
21645;SDS011;10984;45.712;4.800;2023-02-01T04:01:52;15.55;;;6.40;;
21645;SDS011;10984;45.712;4.800;2023-02-01T04:04:18;11.63;;;4.85;;
21645;SDS011;10984;45.712;4.800;2023-02-01T04:07:02;10.48;;;5.03;;
21645;SDS011;10984;45.712;4.800;2023-02-01T04:09:28;12.00;;;5.53;;
21645;SDS011;10984;45.712;4.800;2023-02-01T04:11:54;10.10;;;5.40;;
21645;SDS011;10984;45.712;4.800;2023-02-01T04:14:20;11.80;;;5.70;;
21645;SDS011;10984;45.712;4.800;2023-02-01T04:16:46;11.73;;;5.72;;
21645;SDS011;10984;45.712;4.800;2023-02-01T04:19:11;10.32;;;5.47;;
21645;SDS011;10984;45.712;4.800;2023-02-01T04:21:37;11.38;;;6.00;;
21645;SDS011;10984;45.712;4.800;2023-02-01T04:24:03;9.32;;;5.68;;
21645;SDS011;10984;45.712;4.800;2023-02-01T04:26:29;10.30;;;5.55;;
21645;SDS011;10984;45.712;4.800;2023-02-01T04:28:55;9.57;;;4.88;;
21645;SDS011;10984;45.712;4.800;2023-02-01T04:31:21;13.07;;;4.75;;
21645;SDS011;10984;45.712;4.800;2023-02-01T04:34:05;8.90;;;4.85;;
21645;SDS011;10984;45.712;4.800;2023-02-01T04:36:30;12.20;;;5.00;;
21645;SDS011;10984;45.712;4.800;2023-02-01T04:38:56;9.00;;;4.40;;
21645;SDS011;10984;45.712;4.800;2023-02-01T04:41:21;10.40;;;4.80;;
21645;SDS011;10984;45.712;4.800;2023-02-01T04:43:48;10.23;;;5.20;;
21645;SDS011;10984;45.712;4.800;2023-02-01T04:46:14;9.25;;;3.83;;
21645;SDS011;10984;45.712;4.800;2023-02-01T04:48:40;7.97;;;3.80;;
21645;SDS011;10984;45.712;4.800;2023-02-01T04:51:07;9.25;;;4.45;;
21645;SDS011;10984;45.712;4.800;2023-02-01T04:53:33;8.50;;;3.95;;
21645;SDS011;10984;45.712;4.800;2023-02-01T04:55:58;8.20;;;4.03;;
21645;SDS011;10984;45.712;4.800;2023-02-01T04:58:24;8.27;;;3.80;;
21645;SDS011;10984;45.712;4.800;2023-02-01T05:00:50;8.48;;;4.32;;
21645;SDS011;10984;45.712;4.800;2023-02-01T05:03:16;8.93;;;4.03;;
21645;SDS011;10984;45.712;4.800;2023-02-01T05:05:42;5.88;;;3.97;;
21645;SDS011;10984;45.712;4.800;2023-02-01T05:08:08;8.40;;;3.60;;
21645;SDS011;10984;45.712;4.800;2023-02-01T05:10:33;11.32;;;4.43;;
21645;SDS011;10984;45.712;4.800;2023-02-01T05:12:59;8.45;;;4.47;;
21645;SDS011;10984;45.712;4.800;2023-02-01T05:15:43;8.20;;;3.85;;
21645;SDS011;10984;45.712;4.800;2023-02-01T05:18:11;8.10;;;3.50;;
21645;SDS011;10984;45.712;4.800;2023-02-01T05:20:37;7.50;;;3.83;;
21645;SDS011;10984;45.712;4.800;2023-02-01T05:23:02;6.32;;;3.15;;
21645;SDS011;10984;45.712;4.800;2023-02-01T05:25:28;6.80;;;2.97;;
21645;SDS011;10984;45.712;4.800;2023-02-01T05:27:54;8.85;;;3.30;;
21645;SDS011;10984;45.712;4.800;2023-02-01T05:30:20;7.63;;;3.00;;
21645;SDS011;10984;45.712;4.800;2023-02-01T05:32:48;8.25;;;2.70;;
21645;SDS011;10984;45.712;4.800;2023-02-01T05:35:15;6.75;;;3.40;;
21645;SDS011;10984;45.712;4.800;2023-02-01T05:37:41;6.65;;;3.20;;
21645;SDS011;10984;45.712;4.800;2023-02-01T05:40:06;5.72;;;2.88;;
21645;SDS011;10984;45.712;4.800;2023-02-01T05:42:33;6.65;;;2.85;;
21645;SDS011;10984;45.712;4.800;2023-02-01T05:44:58;7.18;;;2.95;;
21645;SDS011;10984;45.712;4.800;2023-02-01T05:47:24;9.38;;;3.08;;
21645;SDS011;10984;45.712;4.800;2023-02-01T05:49:49;8.93;;;2.47;;
21645;SDS011;10984;45.712;4.800;2023-02-01T05:52:15;6.78;;;2.60;;
21645;SDS011;10984;45.712;4.800;2023-02-01T05:54:44;7.38;;;3.20;;
21645;SDS011;10984;45.712;4.800;2023-02-01T05:57:28;6.95;;;3.28;;
21645;SDS011;10984;45.712;4.800;2023-02-01T05:59:55;9.20;;;2.95;;
21645;SDS011;10984;45.712;4.800;2023-02-01T06:02:20;6.43;;;2.40;;
21645;SDS011;10984;45.712;4.800;2023-02-01T06:04:46;6.35;;;2.50;;
21645;SDS011;10984;45.712;4.800;2023-02-01T06:07:12;8.65;;;3.20;;
21645;SDS011;10984;45.712;4.800;2023-02-01T06:09:37;5.03;;;2.47;;
21645;SDS011;10984;45.712;4.800;2023-02-01T06:12:03;6.97;;;2.33;;
21645;SDS011;10984;45.712;4.800;2023-02-01T06:14:30;5.65;;;2.63;;
21645;SDS011;10984;45.712;4.800;2023-02-01T06:16:55;6.93;;;3.22;;
21645;SDS011;10984;45.712;4.800;2023-02-01T06:19:21;5.25;;;2.60;;
21645;SDS011;10984;45.712;4.800;2023-02-01T06:21:47;6.63;;;2.50;;
21645;SDS011;10984;45.712;4.800;2023-02-01T06:24:13;7.82;;;2.90;;
21645;SDS011;10984;45.712;4.800;2023-02-01T06:26:39;7.13;;;2.88;;
21645;SDS011;10984;45.712;4.800;2023-02-01T06:29:06;7.35;;;2.90;;
21645;SDS011;10984;45.712;4.800;2023-02-01T06:31:32;8.88;;;2.88;;
21645;SDS011;10984;45.712;4.800;2023-02-01T06:33:58;5.82;;;2.67;;
21645;SDS011;10984;45.712;4.800;2023-02-01T06:36:24;8.45;;;2.72;;
21645;SDS011;10984;45.712;4.800;2023-02-01T06:38:49;8.63;;;2.80;;
21645;SDS011;10984;45.712;4.800;2023-02-01T06:41:15;10.43;;;2.70;;
21645;SDS011;10984;45.712;4.800;2023-02-01T06:43:41;6.78;;;2.67;;
21645;SDS011;10984;45.712;4.800;2023-02-01T06:46:08;6.03;;;2.63;;
21645;SDS011;10984;45.712;4.800;2023-02-01T06:48:37;5.75;;;2.40;;
21645;SDS011;10984;45.712;4.800;2023-02-01T06:51:02;7.40;;;2.55;;
21645;SDS011;10984;45.712;4.800;2023-02-01T06:53:28;5.82;;;2.83;;
21645;SDS011;10984;45.712;4.800;2023-02-01T06:55:55;8.30;;;3.38;;
21645;SDS011;10984;45.712;4.800;2023-02-01T06:58:22;6.43;;;2.50;;
21645;SDS011;10984;45.712;4.800;2023-02-01T07:00:48;8.25;;;2.75;;
21645;SDS011;10984;45.712;4.800;2023-02-01T07:03:14;9.77;;;3.22;;
21645;SDS011;10984;45.712;4.800;2023-02-01T07:05:40;10.13;;;3.05;;
21645;SDS011;10984;45.712;4.800;2023-02-01T07:08:05;4.82;;;2.50;;
21645;SDS011;10984;45.712;4.800;2023-02-01T07:10:31;5.85;;;2.70;;
21645;SDS011;10984;45.712;4.800;2023-02-01T07:12:58;5.50;;;2.70;;
21645;SDS011;10984;45.712;4.800;2023-02-01T07:15:24;9.25;;;2.83;;
21645;SDS011;10984;45.712;4.800;2023-02-01T07:17:50;5.70;;;2.95;;
21645;SDS011;10984;45.712;4.800;2023-02-01T07:20:16;5.07;;;2.50;;
21645;SDS011;10984;45.712;4.800;2023-02-01T07:22:42;8.07;;;3.17;;
21645;SDS011;10984;45.712;4.800;2023-02-01T07:25:07;6.75;;;3.00;;
21645;SDS011;10984;45.712;4.800;2023-02-01T07:27:36;6.38;;;2.53;;
21645;SDS011;10984;45.712;4.800;2023-02-01T07:30:02;6.68;;;2.25;;
21645;SDS011;10984;45.712;4.800;2023-02-01T07:32:29;9.48;;;3.03;;
21645;SDS011;10984;45.712;4.800;2023-02-01T07:34:55;6.65;;;2.58;;
21645;SDS011;10984;45.712;4.800;2023-02-01T07:37:21;6.95;;;2.78;;
21645;SDS011;10984;45.712;4.800;2023-02-01T07:39:48;6.95;;;3.15;;
21645;SDS011;10984;45.712;4.800;2023-02-01T07:42:15;6.20;;;2.45;;
21645;SDS011;10984;45.712;4.800;2023-02-01T07:44:40;7.38;;;2.55;;
21645;SDS011;10984;45.712;4.800;2023-02-01T07:47:06;6.97;;;3.33;;
21645;SDS011;10984;45.712;4.800;2023-02-01T07:49:31;5.50;;;2.78;;
21645;SDS011;10984;45.712;4.800;2023-02-01T07:51:57;8.32;;;3.30;;
21645;SDS011;10984;45.712;4.800;2023-02-01T07:54:23;5.40;;;2.70;;
21645;SDS011;10984;45.712;4.800;2023-02-01T07:56:48;8.07;;;3.50;;
21645;SDS011;10984;45.712;4.800;2023-02-01T07:59:14;7.88;;;3.25;;
21645;SDS011;10984;45.712;4.800;2023-02-01T08:01:40;8.80;;;3.50;;
21645;SDS011;10984;45.712;4.800;2023-02-01T08:04:07;8.05;;;3.25;;
21645;SDS011;10984;45.712;4.800;2023-02-01T08:06:35;9.45;;;3.70;;
21645;SDS011;10984;45.712;4.800;2023-02-01T08:09:01;7.93;;;3.58;;
21645;SDS011;10984;45.712;4.800;2023-02-01T08:11:27;6.00;;;3.05;;
21645;SDS011;10984;45.712;4.800;2023-02-01T08:13:53;9.48;;;3.75;;
21645;SDS011;10984;45.712;4.800;2023-02-01T08:16:19;8.40;;;3.03;;
21645;SDS011;10984;45.712;4.800;2023-02-01T08:18:46;9.80;;;3.95;;
21645;SDS011;10984;45.712;4.800;2023-02-01T08:21:13;7.78;;;3.72;;
21645;SDS011;10984;45.712;4.800;2023-02-01T08:24:07;8.73;;;3.58;;
21645;SDS011;10984;45.712;4.800;2023-02-01T08:26:34;7.63;;;3.33;;
21645;SDS011;10984;45.712;4.800;2023-02-01T08:29:01;8.27;;;2.97;;
21645;SDS011;10984;45.712;4.800;2023-02-01T08:31:28;9.93;;;3.85;;
21645;SDS011;10984;45.712;4.800;2023-02-01T08:33:57;7.97;;;2.92;;
21645;SDS011;10984;45.712;4.800;2023-02-01T08:36:25;8.27;;;2.60;;
21645;SDS011;10984;45.712;4.800;2023-02-01T08:38:53;6.90;;;2.83;;
21645;SDS011;10984;45.712;4.800;2023-02-01T08:41:20;5.68;;;2.35;;
21645;SDS011;10984;45.712;4.800;2023-02-01T08:43:47;6.07;;;2.78;;
21645;SDS011;10984;45.712;4.800;2023-02-01T08:46:14;7.22;;;3.13;;
21645;SDS011;10984;45.712;4.800;2023-02-01T08:48:40;7.60;;;2.30;;
21645;SDS011;10984;45.712;4.800;2023-02-01T08:51:07;6.38;;;2.75;;
21645;SDS011;10984;45.712;4.800;2023-02-01T08:53:34;5.53;;;2.60;;
21645;SDS011;10984;45.712;4.800;2023-02-01T08:56:01;4.80;;;2.50;;
21645;SDS011;10984;45.712;4.800;2023-02-01T08:58:27;7.93;;;3.10;;
21645;SDS011;10984;45.712;4.800;2023-02-01T09:00:52;7.75;;;2.78;;
21645;SDS011;10984;45.712;4.800;2023-02-01T09:03:18;5.65;;;2.17;;
21645;SDS011;10984;45.712;4.800;2023-02-01T09:05:44;5.55;;;2.20;;
21645;SDS011;10984;45.712;4.800;2023-02-01T09:08:10;4.50;;;1.77;;
21645;SDS011;10984;45.712;4.800;2023-02-01T09:10:39;4.95;;;1.42;;
21645;SDS011;10984;45.712;4.800;2023-02-01T09:13:06;4.57;;;1.80;;
21645;SDS011;10984;45.712;4.800;2023-02-01T09:15:33;5.30;;;1.70;;
21645;SDS011;10984;45.712;4.800;2023-02-01T09:17:58;3.40;;;1.60;;
21645;SDS011;10984;45.712;4.800;2023-02-01T09:20:24;4.00;;;1.77;;
21645;SDS011;10984;45.712;4.800;2023-02-01T09:22:51;4.60;;;1.45;;
21645;SDS011;10984;45.712;4.800;2023-02-01T09:25:17;3.80;;;1.50;;
21645;SDS011;10984;45.712;4.800;2023-02-01T09:27:43;2.92;;;1.45;;
21645;SDS011;10984;45.712;4.800;2023-02-01T09:30:09;3.25;;;1.55;;
21645;SDS011;10984;45.712;4.800;2023-02-01T09:32:35;5.43;;;1.63;;
21645;SDS011;10984;45.712;4.800;2023-02-01T09:35:01;4.78;;;2.03;;
21645;SDS011;10984;45.712;4.800;2023-02-01T09:37:27;5.90;;;1.48;;
21645;SDS011;10984;45.712;4.800;2023-02-01T09:39:53;6.70;;;2.20;;
21645;SDS011;10984;45.712;4.800;2023-02-01T09:48:27;5.57;;;2.22;;
21645;SDS011;10984;45.712;4.800;2023-02-01T09:50:58;5.30;;;1.52;;
21645;SDS011;10984;45.712;4.800;2023-02-01T10:02:11;3.35;;;1.20;;
21645;SDS011;10984;45.712;4.800;2023-02-01T10:04:57;2.83;;;1.30;;
21645;SDS011;10984;45.712;4.800;2023-02-01T10:24:36;4.85;;;1.40;;
21645;SDS011;10984;45.712;4.800;2023-02-01T10:27:25;11.18;;;2.00;;
21645;SDS011;10984;45.712;4.800;2023-02-01T10:32:43;4.28;;;1.70;;
21645;SDS011;10984;45.712;4.800;2023-02-01T10:37:54;5.07;;;1.75;;
21645;SDS011;10984;45.712;4.800;2023-02-01T10:40:22;3.95;;;1.60;;
21645;SDS011;10984;45.712;4.800;2023-02-01T10:42:50;3.55;;;1.60;;
21645;SDS011;10984;45.712;4.800;2023-02-01T10:45:22;3.45;;;1.92;;
21645;SDS011;10984;45.712;4.800;2023-02-01T10:47:53;5.88;;;2.03;;
21645;SDS011;10984;45.712;4.800;2023-02-01T10:53:08;3.20;;;1.50;;
21645;SDS011;10984;45.712;4.800;2023-02-01T10:55:55;5.07;;;1.60;;
21645;SDS011;10984;45.712;4.800;2023-02-01T10:58:26;25.08;;;8.50;;
21645;SDS011;10984;45.712;4.800;2023-02-01T11:03:57;4.47;;;2.10;;
21645;SDS011;10984;45.712;4.800;2023-02-01T11:11:58;5.25;;;2.47;;
21645;SDS011;10984;45.712;4.800;2023-02-01T11:19:57;4.75;;;1.85;;
21645;SDS011;10984;45.712;4.800;2023-02-01T11:25:26;3.15;;;1.40;;
21645;SDS011;10984;45.712;4.800;2023-02-01T11:27:53;3.50;;;1.48;;
21645;SDS011;10984;45.712;4.800;2023-02-01T11:33:09;7.00;;;1.98;;
21645;SDS011;10984;45.712;4.800;2023-02-01T11:35:39;2.83;;;1.08;;
21645;SDS011;10984;45.712;4.800;2023-02-01T11:40:53;3.05;;;1.35;;
21645;SDS011;10984;45.712;4.800;2023-02-01T11:46:03;4.53;;;1.23;;
21645;SDS011;10984;45.712;4.800;2023-02-01T11:48:41;7.15;;;0.80;;
21645;SDS011;10984;45.712;4.800;2023-02-01T12:22:35;2.92;;;0.90;;
21645;SDS011;10984;45.712;4.800;2023-02-01T12:37:28;2.63;;;1.30;;
21645;SDS011;10984;45.712;4.800;2023-02-01T12:46:28;5.28;;;2.63;;
21645;SDS011;10984;45.712;4.800;2023-02-01T12:52:18;6.47;;;2.17;;
21645;SDS011;10984;45.712;4.800;2023-02-01T12:54:55;5.07;;;2.30;;
21645;SDS011;10984;45.712;4.800;2023-02-01T12:57:30;9.77;;;3.28;;
21645;SDS011;10984;45.712;4.800;2023-02-01T13:11:53;5.05;;;1.70;;
21645;SDS011;10984;45.712;4.800;2023-02-01T13:17:27;2.53;;;1.20;;
21645;SDS011;10984;45.712;4.800;2023-02-01T13:28:36;4.13;;;1.00;;
21645;SDS011;10984;45.712;4.800;2023-02-01T13:43:22;4.35;;;1.40;;
21645;SDS011;10984;45.712;4.800;2023-02-01T13:45:50;4.65;;;1.30;;
21645;SDS011;10984;45.712;4.800;2023-02-01T13:57:00;3.15;;;1.58;;
21645;SDS011;10984;45.712;4.800;2023-02-01T14:16:15;3.85;;;2.10;;
21645;SDS011;10984;45.712;4.800;2023-02-01T14:26:59;4.25;;;1.63;;
21645;SDS011;10984;45.712;4.800;2023-02-01T14:29:50;5.97;;;1.77;;
21645;SDS011;10984;45.712;4.800;2023-02-01T14:32:37;4.20;;;1.67;;
21645;SDS011;10984;45.712;4.800;2023-02-01T14:35:06;4.47;;;1.70;;
21645;SDS011;10984;45.712;4.800;2023-02-01T14:37:52;7.22;;;1.80;;
21645;SDS011;10984;45.712;4.800;2023-02-01T14:50:46;5.03;;;1.90;;
21645;SDS011;10984;45.712;4.800;2023-02-01T15:03:22;4.97;;;1.98;;
21645;SDS011;10984;45.712;4.800;2023-02-01T16:24:23;6.20;;;2.15;;
21645;SDS011;10984;45.712;4.800;2023-02-01T16:26:50;6.03;;;2.55;;
21645;SDS011;10984;45.712;4.800;2023-02-01T16:29:16;5.10;;;2.20;;
21645;SDS011;10984;45.712;4.800;2023-02-01T16:31:42;4.57;;;1.85;;
21645;SDS011;10984;45.712;4.800;2023-02-01T16:36:52;4.18;;;1.95;;
21645;SDS011;10984;45.712;4.800;2023-02-01T16:39:21;6.95;;;1.85;;
21645;SDS011;10984;45.712;4.800;2023-02-01T16:41:46;7.07;;;2.22;;
21645;SDS011;10984;45.712;4.800;2023-02-01T16:44:12;15.50;;;5.70;;
21645;SDS011;10984;45.712;4.800;2023-02-01T16:49:23;5.43;;;2.85;;
21645;SDS011;10984;45.712;4.800;2023-02-01T16:51:50;3.53;;;1.80;;
21645;SDS011;10984;45.712;4.800;2023-02-01T16:54:35;5.82;;;2.53;;
21645;SDS011;10984;45.712;4.800;2023-02-01T16:57:01;4.47;;;1.80;;
21645;SDS011;10984;45.712;4.800;2023-02-01T16:59:26;5.97;;;1.92;;
21645;SDS011;10984;45.712;4.800;2023-02-01T17:01:52;8.77;;;2.08;;
21645;SDS011;10984;45.712;4.800;2023-02-01T17:04:18;7.13;;;2.65;;
21645;SDS011;10984;45.712;4.800;2023-02-01T17:06:45;9.98;;;2.20;;
21645;SDS011;10984;45.712;4.800;2023-02-01T17:09:13;6.47;;;1.92;;
21645;SDS011;10984;45.712;4.800;2023-02-01T17:11:39;4.00;;;1.80;;
21645;SDS011;10984;45.712;4.800;2023-02-01T17:16:49;5.53;;;2.08;;
21645;SDS011;10984;45.712;4.800;2023-02-01T17:19:16;11.13;;;2.42;;
21645;SDS011;10984;45.712;4.800;2023-02-01T17:21:48;7.30;;;2.38;;
21645;SDS011;10984;45.712;4.800;2023-02-01T17:24:21;11.00;;;3.13;;
21645;SDS011;10984;45.712;4.800;2023-02-01T17:26:49;6.10;;;2.20;;
21645;SDS011;10984;45.712;4.800;2023-02-01T17:29:16;10.77;;;2.45;;
21645;SDS011;10984;45.712;4.800;2023-02-01T17:31:43;8.02;;;1.80;;
21645;SDS011;10984;45.712;4.800;2023-02-01T17:34:12;7.35;;;2.10;;
21645;SDS011;10984;45.712;4.800;2023-02-01T17:36:40;3.60;;;1.95;;
21645;SDS011;10984;45.712;4.800;2023-02-01T17:39:06;6.13;;;2.25;;
21645;SDS011;10984;45.712;4.800;2023-02-01T17:41:32;5.65;;;2.00;;
21645;SDS011;10984;45.712;4.800;2023-02-01T17:43:58;5.03;;;1.95;;
21645;SDS011;10984;45.712;4.800;2023-02-01T17:46:24;8.52;;;2.05;;
21645;SDS011;10984;45.712;4.800;2023-02-01T17:48:51;6.82;;;1.95;;
21645;SDS011;10984;45.712;4.800;2023-02-01T17:51:19;4.85;;;1.60;;
21645;SDS011;10984;45.712;4.800;2023-02-01T17:53:46;12.07;;;2.15;;
21645;SDS011;10984;45.712;4.800;2023-02-01T17:56:16;6.47;;;2.55;;
21645;SDS011;10984;45.712;4.800;2023-02-01T17:58:44;5.72;;;2.05;;
21645;SDS011;10984;45.712;4.800;2023-02-01T18:01:15;8.13;;;1.92;;
21645;SDS011;10984;45.712;4.800;2023-02-01T18:04:00;9.02;;;2.55;;
21645;SDS011;10984;45.712;4.800;2023-02-01T18:06:26;6.78;;;1.98;;
21645;SDS011;10984;45.712;4.800;2023-02-01T18:08:52;9.40;;;3.13;;
21645;SDS011;10984;45.712;4.800;2023-02-01T18:11:19;6.85;;;2.40;;
21645;SDS011;10984;45.712;4.800;2023-02-01T18:13:46;9.45;;;2.88;;
21645;SDS011;10984;45.712;4.800;2023-02-01T18:18:58;6.07;;;1.92;;
21645;SDS011;10984;45.712;4.800;2023-02-01T18:21:28;7.43;;;2.50;;
21645;SDS011;10984;45.712;4.800;2023-02-01T18:24:14;9.38;;;2.17;;
21645;SDS011;10984;45.712;4.800;2023-02-01T18:26:41;6.57;;;2.55;;
21645;SDS011;10984;45.712;4.800;2023-02-01T18:29:07;8.88;;;2.85;;
21645;SDS011;10984;45.712;4.800;2023-02-01T18:31:33;7.13;;;1.95;;
21645;SDS011;10984;45.712;4.800;2023-02-01T18:34:01;6.25;;;2.22;;
21645;SDS011;10984;45.712;4.800;2023-02-01T18:36:28;7.13;;;2.28;;
21645;SDS011;10984;45.712;4.800;2023-02-01T18:38:54;7.80;;;3.20;;
21645;SDS011;10984;45.712;4.800;2023-02-01T18:41:21;7.78;;;2.67;;
21645;SDS011;10984;45.712;4.800;2023-02-01T18:43:49;9.65;;;3.15;;
21645;SDS011;10984;45.712;4.800;2023-02-01T18:46:15;13.05;;;3.97;;
21645;SDS011;10984;45.712;4.800;2023-02-01T18:48:42;8.80;;;3.35;;
21645;SDS011;10984;45.712;4.800;2023-02-01T18:53:52;8.50;;;3.28;;
21645;SDS011;10984;45.712;4.800;2023-02-01T18:56:18;6.55;;;3.42;;
21645;SDS011;10984;45.712;4.800;2023-02-01T18:58:44;10.35;;;3.67;;
21645;SDS011;10984;45.712;4.800;2023-02-01T19:03:54;9.60;;;3.58;;
21645;SDS011;10984;45.712;4.800;2023-02-01T19:06:21;8.40;;;3.25;;
21645;SDS011;10984;45.712;4.800;2023-02-01T19:08:46;8.10;;;3.38;;
21645;SDS011;10984;45.712;4.800;2023-02-01T19:11:12;10.55;;;4.03;;
21645;SDS011;10984;45.712;4.800;2023-02-01T19:13:38;9.40;;;3.90;;
21645;SDS011;10984;45.712;4.800;2023-02-01T19:16:08;11.15;;;3.75;;
21645;SDS011;10984;45.712;4.800;2023-02-01T19:18:35;8.85;;;3.85;;
21645;SDS011;10984;45.712;4.800;2023-02-01T19:21:05;12.13;;;4.25;;
21645;SDS011;10984;45.712;4.800;2023-02-01T19:26:20;8.73;;;4.03;;
21645;SDS011;10984;45.712;4.800;2023-02-01T19:28:46;14.55;;;5.25;;
21645;SDS011;10984;45.712;4.800;2023-02-01T19:31:13;9.75;;;4.40;;
21645;SDS011;10984;45.712;4.800;2023-02-01T19:33:39;11.85;;;4.97;;
21645;SDS011;10984;45.712;4.800;2023-02-01T19:36:05;11.25;;;5.15;;
21645;SDS011;10984;45.712;4.800;2023-02-01T19:38:33;17.20;;;7.13;;
21645;SDS011;10984;45.712;4.800;2023-02-01T19:40:59;13.13;;;5.30;;
21645;SDS011;10984;45.712;4.800;2023-02-01T19:43:26;11.95;;;5.40;;
21645;SDS011;10984;45.712;4.800;2023-02-01T19:45:52;15.18;;;5.43;;
21645;SDS011;10984;45.712;4.800;2023-02-01T19:48:19;13.30;;;6.18;;
21645;SDS011;10984;45.712;4.800;2023-02-01T19:50:45;19.52;;;7.30;;
21645;SDS011;10984;45.712;4.800;2023-02-01T19:53:11;17.75;;;6.63;;
21645;SDS011;10984;45.712;4.800;2023-02-01T19:55:37;11.48;;;5.78;;
21645;SDS011;10984;45.712;4.800;2023-02-01T19:58:03;13.95;;;6.63;;
21645;SDS011;10984;45.712;4.800;2023-02-01T20:00:29;15.32;;;5.60;;
21645;SDS011;10984;45.712;4.800;2023-02-01T20:02:56;11.25;;;4.32;;
21645;SDS011;10984;45.712;4.800;2023-02-01T20:05:23;14.85;;;5.65;;
21645;SDS011;10984;45.712;4.800;2023-02-01T20:07:49;15.07;;;6.45;;
21645;SDS011;10984;45.712;4.800;2023-02-01T20:10:15;19.98;;;8.50;;
21645;SDS011;10984;45.712;4.800;2023-02-01T20:12:40;21.92;;;10.73;;
21645;SDS011;10984;45.712;4.800;2023-02-01T20:15:06;41.08;;;15.10;;
21645;SDS011;10984;45.712;4.800;2023-02-01T20:17:33;38.72;;;15.68;;
21645;SDS011;10984;45.712;4.800;2023-02-01T20:20:00;30.73;;;14.00;;
21645;SDS011;10984;45.712;4.800;2023-02-01T20:22:26;24.83;;;11.23;;
21645;SDS011;10984;45.712;4.800;2023-02-01T20:24:52;17.85;;;8.40;;
21645;SDS011;10984;45.712;4.800;2023-02-01T20:27:17;21.20;;;9.50;;
21645;SDS011;10984;45.712;4.800;2023-02-01T20:29:43;19.27;;;8.05;;
21645;SDS011;10984;45.712;4.800;2023-02-01T20:32:08;27.52;;;8.23;;
21645;SDS011;10984;45.712;4.800;2023-02-01T20:34:34;17.50;;;7.93;;
21645;SDS011;10984;45.712;4.800;2023-02-01T20:37:00;24.05;;;8.45;;
21645;SDS011;10984;45.712;4.800;2023-02-01T20:39:26;17.52;;;6.85;;
21645;SDS011;10984;45.712;4.800;2023-02-01T20:41:51;13.70;;;6.50;;
21645;SDS011;10984;45.712;4.800;2023-02-01T20:44:17;15.02;;;6.45;;
21645;SDS011;10984;45.712;4.800;2023-02-01T20:46:43;14.30;;;7.65;;
21645;SDS011;10984;45.712;4.800;2023-02-01T20:49:08;17.20;;;6.65;;
21645;SDS011;10984;45.712;4.800;2023-02-01T20:51:34;18.55;;;7.25;;
21645;SDS011;10984;45.712;4.800;2023-02-01T20:54:00;18.52;;;6.32;;
21645;SDS011;10984;45.712;4.800;2023-02-01T20:56:25;14.38;;;5.53;;
21645;SDS011;10984;45.712;4.800;2023-02-01T20:58:51;15.55;;;5.40;;
21645;SDS011;10984;45.712;4.800;2023-02-01T21:01:16;15.50;;;6.20;;
21645;SDS011;10984;45.712;4.800;2023-02-01T21:03:42;12.93;;;5.35;;
21645;SDS011;10984;45.712;4.800;2023-02-01T21:06:09;14.30;;;5.47;;
21645;SDS011;10984;45.712;4.800;2023-02-01T21:08:36;12.75;;;6.22;;
21645;SDS011;10984;45.712;4.800;2023-02-01T21:11:03;18.10;;;6.78;;
21645;SDS011;10984;45.712;4.800;2023-02-01T21:13:47;14.27;;;6.88;;
21645;SDS011;10984;45.712;4.800;2023-02-01T21:16:32;12.85;;;5.50;;
21645;SDS011;10984;45.712;4.800;2023-02-01T21:18:57;15.05;;;7.13;;